Stations météo

réclame
Mon MeteoGroup
Villafranca, Espagne (8241): Température de l'air & dewpoint: 13.06.2018 06:00:00 - 19.06.2018 06:00:00 (CEST)Villafranca, Espagne (8241): Vitesse du vent & gusts: 13.06.2018 06:00:00 - 19.06.2018 06:00:00 (CEST)Villafranca, Espagne (8241): Direction du vent: 13.06.2018 06:00:00 - 19.06.2018 06:00:00 (CEST)Villafranca, Espagne (8241): visibility: 13.06.2018 06:00:00 - 19.06.2018 06:00:00 (CEST)Villafranca, Espagne (8241): Ensoleillement: 13.06.2018 06:00:00 - 19.06.2018 06:00:00 (CEST)Villafranca, Espagne (8241): Quantités de précipitations: 13.06.2018 06:00:00 - 19.06.2018 06:00:00 (CEST)
Date & Time tt [°C] td [°C] ff [km/h] ff [knt] fx [km/h] fx [knt] dd vv [km] sd [min] rr [mm]
19.06.2018 06:00:00 - - - - - - - - - -
19.06.2018 05:00:00 9,6 7,0 8 4 11 6 WNW 20 0 0,0
19.06.2018 04:00:00 10,2 7,4 9 5 15 8 NW 20 0 0,0
19.06.2018 03:00:00 10,9 7,7 9 5 14 7 WNW 20 0 0,0
19.06.2018 02:00:00 11,9 8,1 8 5 15 8 NW 20 0 -
19.06.2018 01:00:00 - - - - - - - - - -
19.06.2018 00:00:00 14,3 9,0 12 6 16 9 NW 20 0 0,0
18.06.2018 23:00:00 15,6 9,0 9 5 11 6 NW 20 0 0,0
18.06.2018 22:00:00 17,8 8,7 5 3 16 9 N 20 15 0,0
18.06.2018 21:00:00 21,0 8,9 10 5 23 12 N - 60 0,0
18.06.2018 20:00:00 22,4 8,5 14 7 24 13 N - 60 -
18.06.2018 19:00:00 23,8 9,4 14 8 26 14 NNW - 60 0,0
18.06.2018 18:00:00 24,2 9,3 15 8 36 19 NNW - 60 0,0
18.06.2018 17:00:00 24,1 9,3 18 10 33 18 N - 60 0,0
18.06.2018 16:00:00 23,8 8,3 19 11 35 19 NNW - 60 0,0
18.06.2018 15:00:00 23,5 10,5 18 10 35 19 N - 60 0,0
18.06.2018 14:00:00 - - - - - - - - - -
18.06.2018 13:00:00 23,0 11,1 16 8 31 17 N - 60 0,0
18.06.2018 12:00:00 21,6 10,2 17 9 32 17 N - 60 0,0
18.06.2018 11:00:00 20,7 10,5 19 10 34 19 NNW - 60 0,0
18.06.2018 10:00:00 18,3 8,3 17 9 32 17 NNW - 57 0,0
18.06.2018 09:00:00 15,8 6,5 11 6 28 15 N 20 8 0,0
18.06.2018 08:00:00 13,6 4,6 14 7 29 15 N 20 2 -
18.06.2018 07:00:00 12,7 2,5 20 11 29 16 NNW 20 0 0,0
18.06.2018 06:00:00 13,2 -0,5 16 9 26 14 NW 20 0 0,0
18.06.2018 05:00:00 14,1 0,6 14 7 32 18 NW 20 0 0,0
18.06.2018 04:00:00 14,6 1,5 23 13 35 19 NW 20 0 0,0
18.06.2018 03:00:00 14,5 0,0 19 10 41 22 NW 20 0 0,0
18.06.2018 02:00:00 15,2 3,6 26 14 38 20 NW 20 0 -
18.06.2018 01:00:00 15,1 4,1 14 7 33 18 N 20 0 0,0
18.06.2018 00:00:00 15,5 4,5 19 10 29 16 NW 20 0 0,0
17.06.2018 23:00:00 - - - - - - - - - -
17.06.2018 22:00:00 18,1 7,8 8 4 24 13 NNW 20 15 0,0
17.06.2018 21:00:00 20,9 7,1 16 9 35 19 NNW - 60 0,0
17.06.2018 20:00:00 21,8 6,1 21 12 36 19 NNW - 60 -
17.06.2018 19:00:00 23,2 6,4 16 9 27 15 NNW - 60 0,0
17.06.2018 18:00:00 23,6 8,4 15 8 30 16 N - 60 0,0
17.06.2018 17:00:00 24,1 10,0 14 8 32 17 NNW - 60 0,0
17.06.2018 16:00:00 24,6 10,0 17 9 35 19 NNW - 58 0,0
17.06.2018 15:00:00 24,0 9,9 16 9 32 17 N - 60 0,0
17.06.2018 14:00:00 23,6 9,6 19 10 33 18 NNW - 60 -
17.06.2018 13:00:00 23,4 7,8 18 10 32 17 NNW - 60 0,0
17.06.2018 12:00:00 22,1 6,7 20 11 36 19 NW - 60 0,0
17.06.2018 11:00:00 20,2 5,0 21 11 31 17 NNW - 60 0,0
17.06.2018 10:00:00 17,2 3,4 13 7 23 13 NNW - 57 0,0
17.06.2018 09:00:00 14,2 2,5 9 5 17 9 NNW 20 13 0,0
17.06.2018 08:00:00 11,7 -0,5 9 5 16 9 NNW 20 2 -
17.06.2018 07:00:00 10,5 -0,3 10 5 21 11 NW 20 0 0,0
17.06.2018 06:00:00 10,9 0,0 15 8 27 14 N 20 0 0,0
17.06.2018 05:00:00 11,4 0,9 15 8 24 13 NNW 20 0 0,0
17.06.2018 04:00:00 11,2 1,7 13 7 19 10 N 20 0 0,0
17.06.2018 03:00:00 10,9 3,0 13 7 24 13 NW 20 0 0,0
17.06.2018 02:00:00 11,5 4,5 14 8 20 11 NW 20 0 -
17.06.2018 01:00:00 12,5 5,0 6 4 18 10 NW 20 0 0,0
17.06.2018 00:00:00 14,1 5,8 11 6 19 10 NW 20 0 0,0
16.06.2018 23:00:00 15,1 5,6 9 5 10 6 WNW 20 0 0,0
16.06.2018 22:00:00 17,4 7,1 5 3 17 9 NW 20 2 0,0
16.06.2018 21:00:00 20,7 9,3 8 4 18 10 NNE - 58 0,0
16.06.2018 20:00:00 21,2 13,2 5 3 11 6 E - 52 -
16.06.2018 19:00:00 20,4 13,9 6 4 16 9 E - 14 0,0
16.06.2018 18:00:00 20,6 13,8 10 5 21 12 SE - 12 0,0
16.06.2018 17:00:00 21,3 13,9 7 4 19 11 E - 32 0,0
16.06.2018 16:00:00 21,9 15,0 9 5 20 11 E - 17 0,0
16.06.2018 15:00:00 21,9 13,8 9 5 21 11 ESE - 45 0,0
16.06.2018 14:00:00 20,7 13,4 8 5 18 10 ESE - 5 -
16.06.2018 13:00:00 20,2 12,6 10 5 23 13 ESE - 8 0,0
16.06.2018 12:00:00 22,1 12,3 12 6 21 11 E - 60 0,0
16.06.2018 11:00:00 20,6 11,6 8 4 16 9 ENE - 60 0,0
16.06.2018 10:00:00 17,0 10,4 3 2 14 8 NE - 59 0,0
16.06.2018 09:00:00 14,4 10,8 8 4 14 8 NNW 20 13 0,0
16.06.2018 08:00:00 11,7 9,6 7 4 14 8 WNW 20 0 -
16.06.2018 07:00:00 11,0 8,8 9 5 14 7 NW 19 0 0,0
16.06.2018 06:00:00 11,6 9,2 9 5 13 7 WNW 20 0 0,0
16.06.2018 05:00:00 11,8 9,2 6 4 14 8 NW 20 0 0,0
16.06.2018 04:00:00 12,1 9,2 10 5 14 8 NW 20 0 0,0
16.06.2018 03:00:00 12,4 9,2 8 5 14 7 NW 20 0 0,0
16.06.2018 02:00:00 13,5 9,6 9 5 14 8 W 20 0 -
16.06.2018 01:00:00 14,5 9,9 13 7 17 9 NW 20 0 0,0
16.06.2018 00:00:00 15,1 9,7 11 6 16 9 WNW 20 0 0,0
15.06.2018 23:00:00 16,4 8,9 2 1 18 10 SW 20 0 0,0
15.06.2018 22:00:00 17,9 7,8 12 6 22 12 NNW 20 8 0,0
15.06.2018 21:00:00 20,6 7,6 16 9 29 16 NNW - 58 0,0
15.06.2018 20:00:00 21,3 5,9 18 10 34 19 NNW - 32 -
15.06.2018 19:00:00 - - - - - - - - - -
15.06.2018 18:00:00 23,5 5,8 16 9 33 18 N - 58 0,0
15.06.2018 17:00:00 24,1 5,9 15 8 30 16 N - 60 0,0
15.06.2018 16:00:00 24,3 6,5 14 7 23 12 N - 60 0,0
15.06.2018 15:00:00 24,0 7,1 11 6 23 13 N - 60 0,0
15.06.2018 14:00:00 22,6 5,5 5 3 16 9 E - 60 -
15.06.2018 13:00:00 21,3 3,9 6 3 18 10 N - 60 0,0
15.06.2018 12:00:00 20,0 7,4 10 5 21 11 N - 60 0,0
15.06.2018 11:00:00 18,4 5,0 10 6 20 11 N - 60 0,0
15.06.2018 10:00:00 15,7 5,3 11 6 21 11 N - 59 0,0
15.06.2018 09:00:00 12,8 4,5 10 6 17 9 NNW 20 17 0,0
15.06.2018 08:00:00 8,4 4,5 6 4 13 7 N 20 4 -
15.06.2018 07:00:00 6,1 2,9 10 6 13 7 NW 20 0 0,0
15.06.2018 06:00:00 6,1 2,1 11 6 13 7 NW 20 0 0,0
15.06.2018 05:00:00 6,7 2,5 5 3 11 6 WNW 20 0 0,0
15.06.2018 04:00:00 7,6 3,4 9 5 17 9 NW 20 0 0,0
15.06.2018 03:00:00 8,2 3,9 6 3 16 8 W 20 0 0,0
15.06.2018 02:00:00 9,3 5,6 6 3 14 7 WNW 20 0 -
15.06.2018 01:00:00 10,7 6,7 11 6 29 16 WNW 20 0 0,0
15.06.2018 00:00:00 11,5 6,8 18 10 26 14 NW 20 0 0,0
14.06.2018 23:00:00 12,6 7,0 10 5 22 12 NW 20 0 0,0
14.06.2018 22:00:00 14,1 7,4 13 7 24 13 NW 20 14 0,0
14.06.2018 21:00:00 16,4 7,3 16 9 27 15 NNW 20 54 0,0
14.06.2018 20:00:00 18,5 7,8 17 9 29 16 NNW - 56 -
14.06.2018 19:00:00 20,3 8,3 14 8 27 15 N - 60 0,0
14.06.2018 18:00:00 20,8 8,4 13 7 26 14 NNW - 60 0,0
14.06.2018 17:00:00 20,3 8,3 14 8 27 15 NNW - 60 0,0
14.06.2018 16:00:00 21,0 9,6 12 6 24 13 NW - 60 0,0
14.06.2018 15:00:00 20,2 7,6 11 6 23 12 NNW - 60 0,0
14.06.2018 14:00:00 19,0 7,4 13 7 30 16 NNW - 60 -
14.06.2018 13:00:00 17,3 7,3 16 9 35 19 N - 60 0,0
14.06.2018 12:00:00 15,4 7,7 19 10 34 18 N - 60 0,0
14.06.2018 11:00:00 14,4 7,3 21 12 35 19 NNW 20 60 0,0
14.06.2018 10:00:00 13,0 6,8 21 11 32 17 NNW 20 60 0,0
14.06.2018 09:00:00 10,9 6,2 19 10 32 17 NNW 20 14 0,0
14.06.2018 08:00:00 8,5 5,6 19 10 29 15 NNW 19 4 -
14.06.2018 07:00:00 7,4 4,8 16 9 27 15 NNW 17 0 0,0
14.06.2018 06:00:00 7,6 5,1 18 10 27 14 NNW 17 0 0,0
14.06.2018 05:00:00 7,9 5,1 18 10 29 16 NNW 18 0 0,0
14.06.2018 04:00:00 8,5 5,5 19 10 31 17 NNW 19 0 0,0
14.06.2018 03:00:00 9,2 5,6 20 11 40 21 NNW 20 0 0,0
14.06.2018 02:00:00 9,9 5,5 24 13 42 23 NNW 20 0 -
14.06.2018 01:00:00 10,3 5,6 27 14 44 24 NNW 20 0 0,0
14.06.2018 00:00:00 10,6 5,3 21 11 36 20 NNW 20 0 0,0
13.06.2018 23:00:00 11,5 5,6 27 15 48 26 NW 10 0 0,0
13.06.2018 22:00:00 12,4 6,4 28 15 50 27 NW 20 12 0,0
13.06.2018 21:00:00 14,5 6,5 37 20 53 29 NW 20 60 0,0
13.06.2018 20:00:00 16,1 6,8 34 18 57 31 NNW 20 60 -
13.06.2018 19:00:00 17,3 7,6 29 16 55 30 NNW - 60 0,0
13.06.2018 18:00:00 18,0 7,7 36 20 55 30 NW - 60 0,0
13.06.2018 17:00:00 - - - - - - - - - -
13.06.2018 16:00:00 18,2 8,8 40 21 72 39 NW - 60 0,0
13.06.2018 15:00:00 17,7 9,0 35 19 55 30 NNW - 56 0,0
13.06.2018 14:00:00 17,2 8,7 36 20 58 31 NW - 57 -
13.06.2018 13:00:00 17,1 8,3 37 20 55 30 NW - 57 0,0
13.06.2018 12:00:00 - - - - - - - - - -
13.06.2018 11:00:00 14,6 7,4 36 20 64 35 NW 20 55 0,0
13.06.2018 10:00:00 13,4 7,1 41 22 66 36 NW 20 54 0,0
13.06.2018 09:00:00 12,0 7,1 35 19 50 27 NW 20 3 0,0
13.06.2018 08:00:00 11,1 6,4 19 11 38 21 NNW 19 1 -
13.06.2018 07:00:00 10,2 5,8 20 11 58 31 NNW 19 0 0,0
13.06.2018 06:00:00 10,0 5,1 35 19 61 33 NW 18 0 0,0

tt = Température de l'air
td = dewpoint
ff = Vitesse du vent
fx = gusts
dd = Direction du vent
vv = visibility
sd = Ensoleillement
rr = Quantités de précipitations

stations d'obs. à proximité